createdAt,value
2022-09-20T00:01:32.522Z,2.33
2022-09-20T00:04:02.277Z,3.50
2022-09-20T00:06:31.660Z,2.58
2022-09-20T00:09:01.253Z,2.47
2022-09-20T00:11:31.987Z,2.25
2022-09-20T00:14:01.343Z,2.80
2022-09-20T00:16:35.172Z,2.33
2022-09-20T00:19:04.229Z,2.70
2022-09-20T00:21:34.036Z,2.20
2022-09-20T00:24:01.688Z,2.22
2022-09-20T00:26:29.193Z,2.35
2022-09-20T00:28:57.996Z,2.28
2022-09-20T00:31:24.989Z,3.40
2022-09-20T00:34:14.020Z,2.47
2022-09-20T00:36:41.197Z,2.70
2022-09-20T00:39:14.137Z,2.10
2022-09-20T00:41:41.067Z,3.78
2022-09-20T00:44:55.869Z,2.22
2022-09-20T00:48:09.553Z,2.30
2022-09-20T00:50:47.589Z,1.85
2022-09-20T00:53:45.277Z,2.33
2022-09-20T00:56:22.380Z,2.40
2022-09-20T00:59:32.367Z,2.20
2022-09-20T01:02:27.276Z,2.33
2022-09-20T01:04:55.180Z,2.20
2022-09-20T01:07:22.586Z,3.35
2022-09-20T01:09:49.843Z,2.35
2022-09-20T01:12:23.787Z,3.20
2022-09-20T01:14:51.826Z,2.38
2022-09-20T01:17:20.642Z,2.70
2022-09-20T01:20:44.875Z,3.28
2022-09-20T01:23:47.371Z,2.30
2022-09-20T01:26:32.046Z,2.47
2022-09-20T01:29:41.854Z,2.17
2022-09-20T01:32:14.236Z,2.72
2022-09-20T01:34:51.613Z,2.33
2022-09-20T01:38:02.802Z,2.42
2022-09-20T01:40:59.655Z,2.93
2022-09-20T01:44:08.239Z,2.20
2022-09-20T01:46:36.743Z,2.85
2022-09-20T01:49:32.655Z,2.45
2022-09-20T01:52:11.562Z,2.28
2022-09-20T01:54:57.971Z,2.63
2022-09-20T01:58:14.678Z,3.15
2022-09-20T02:01:21.249Z,2.50
2022-09-20T02:04:18.493Z,2.70
2022-09-20T02:07:07.932Z,2.58
2022-09-20T02:09:56.990Z,2.30
2022-09-20T02:12:56.089Z,3.00
2022-09-20T02:15:53.232Z,2.58
2022-09-20T02:18:34.022Z,2.22
2022-09-20T02:21:44.166Z,2.70
2022-09-20T02:24:16.726Z,2.50
2022-09-20T02:26:51.130Z,2.63
2022-09-20T02:29:48.668Z,3.92
2022-09-20T02:32:35.168Z,2.58
2022-09-20T02:35:41.644Z,5.07
2022-09-20T02:38:40.096Z,2.38
2022-09-20T02:41:48.306Z,2.20
2022-09-20T02:44:54.717Z,2.40
2022-09-20T02:47:40.005Z,2.42
2022-09-20T02:50:38.291Z,2.42
2022-09-20T02:53:47.983Z,2.53
2022-09-20T02:56:52.852Z,2.40
2022-09-20T02:59:25.319Z,2.83
2022-09-20T03:02:23.182Z,3.20
2022-09-20T03:05:11.118Z,2.90
2022-09-20T03:08:14.466Z,3.28
2022-09-20T03:11:28.419Z,2.53
2022-09-20T03:14:23.107Z,2.88
2022-09-20T03:17:15.791Z,2.97
2022-09-20T03:20:27.287Z,2.40
2022-09-20T03:23:36.196Z,1.88
2022-09-20T03:26:48.077Z,2.65
2022-09-20T03:29:47.657Z,2.60
2022-09-20T03:32:55.351Z,2.85
2022-09-20T03:36:11.114Z,3.00
2022-09-20T03:38:57.159Z,2.47
2022-09-20T03:41:39.313Z,2.53
2022-09-20T03:44:39.239Z,2.40
2022-09-20T03:47:40.117Z,2.17
2022-09-20T03:50:34.111Z,2.40
2022-09-20T03:53:23.920Z,2.50
2022-09-20T03:55:59.474Z,2.42
2022-09-20T03:59:23.065Z,2.70
2022-09-20T04:02:07.821Z,2.25
2022-09-20T04:04:57.264Z,2.22
2022-09-20T04:07:45.663Z,2.40
2022-09-20T04:10:36.672Z,2.30
2022-09-20T04:13:30.988Z,2.27
2022-09-20T04:16:40.571Z,1.83
2022-09-20T04:19:42.697Z,1.90
2022-09-20T04:25:13.446Z,2.17
2022-09-20T04:28:19.172Z,1.98
2022-09-20T04:30:46.553Z,2.10
2022-09-20T04:33:25.387Z,1.98
2022-09-20T04:36:30.156Z,2.22
2022-09-20T04:39:42.480Z,2.05
2022-09-20T04:42:36.703Z,2.22
2022-09-20T04:45:51.566Z,2.30
2022-09-20T04:49:03.707Z,2.50
2022-09-20T04:52:01.331Z,2.03
2022-09-20T04:54:34.739Z,2.13
2022-09-20T04:57:24.793Z,2.53
2022-09-20T05:00:03.292Z,2.30
2022-09-20T05:03:05.833Z,2.33
2022-09-20T05:06:19.841Z,2.08
2022-09-20T05:09:47.387Z,2.00
2022-09-20T05:12:34.500Z,1.92
2022-09-20T05:15:44.768Z,1.90
2022-09-20T05:18:35.644Z,2.40
2022-09-20T05:21:32.322Z,2.20
2022-09-20T05:24:25.632Z,2.20
2022-09-20T05:27:41.980Z,2.10
2022-09-20T05:30:37.942Z,2.00
2022-09-20T05:33:30.635Z,2.28
2022-09-20T05:36:14.092Z,2.00
2022-09-20T05:39:12.992Z,2.03
2022-09-20T05:41:57.220Z,1.80
2022-09-20T05:44:50.034Z,2.58
2022-09-20T05:47:36.186Z,2.30
2022-09-20T05:50:45.000Z,2.22
2022-09-20T05:53:42.036Z,2.40
2022-09-20T05:56:42.094Z,2.40
2022-09-20T06:00:00.947Z,2.10
2022-09-20T06:03:10.586Z,2.83
2022-09-20T06:06:37.996Z,1.80
2022-09-20T06:09:49.576Z,2.30
2022-09-20T06:12:41.103Z,2.33
2022-09-20T06:15:33.300Z,2.60
2022-09-20T06:18:26.183Z,2.65
2022-09-20T06:21:38.361Z,2.90
2022-09-20T06:26:36.634Z,1.98
2022-09-20T06:29:06.348Z,2.40
2022-09-20T06:31:33.218Z,2.40
2022-09-20T06:34:08.826Z,2.05
2022-09-20T06:36:56.790Z,4.45
2022-09-20T06:39:51.426Z,5.30
2022-09-20T06:42:18.463Z,5.65
2022-09-20T06:44:46.229Z,5.28
2022-09-20T06:47:15.056Z,4.40
2022-09-20T06:49:42.710Z,3.30
2022-09-20T06:52:15.334Z,2.85
2022-09-20T06:54:47.257Z,2.38
2022-09-20T06:57:31.175Z,2.00
2022-09-20T06:59:57.902Z,2.63
2022-09-20T07:02:24.625Z,1.90
2022-09-20T07:04:55.322Z,2.13
2022-09-20T07:07:22.128Z,2.20
2022-09-20T07:09:48.951Z,2.05
2022-09-20T07:12:15.685Z,2.22
2022-09-20T07:14:42.993Z,2.05
2022-09-20T07:17:09.851Z,2.13
2022-09-20T07:19:36.787Z,2.30
2022-09-20T07:24:32.186Z,2.05
2022-09-20T07:27:05.102Z,2.45
2022-09-20T07:29:31.859Z,2.83
2022-09-20T07:31:58.746Z,2.20
2022-09-20T07:34:27.171Z,2.67
2022-09-20T07:39:20.775Z,2.90
2022-09-20T07:41:51.213Z,2.25
2022-09-20T07:44:22.040Z,1.85
2022-09-20T07:46:50.836Z,2.85
2022-09-20T07:49:18.293Z,3.40
2022-09-20T07:51:45.211Z,1.70
2022-09-20T07:54:12.083Z,1.90
2022-09-20T07:56:40.086Z,2.60
2022-09-20T07:59:06.929Z,2.20
2022-09-20T08:01:33.786Z,2.03
2022-09-20T08:04:01.415Z,1.60
2022-09-20T08:06:28.369Z,2.20
2022-09-20T08:08:55.811Z,2.00
2022-09-20T08:11:27.820Z,1.95
2022-09-20T08:14:11.049Z,1.80
2022-09-20T08:16:41.425Z,1.90
2022-09-20T08:19:08.703Z,1.65
2022-09-20T08:21:37.912Z,1.90
2022-09-20T08:24:04.983Z,1.75
2022-09-20T08:26:32.231Z,5.20
2022-09-20T08:29:01.131Z,4.70
2022-09-20T08:31:37.118Z,2.60
2022-09-20T08:36:41.082Z,2.00
2022-09-20T13:35:07.054Z,1.10
2022-09-20T13:37:34.426Z,1.35
2022-09-20T13:40:01.514Z,1.20
2022-09-20T13:42:30.181Z,1.35
2022-09-20T13:44:58.761Z,1.17
2022-09-20T13:47:29.119Z,1.15
2022-09-20T13:50:15.185Z,1.07
2022-09-20T13:58:32.632Z,1.30
2022-09-20T14:01:05.558Z,1.45
2022-09-20T14:11:21.448Z,1.30
2022-09-20T14:14:09.268Z,1.38
2022-09-20T14:16:40.650Z,1.48
2022-09-20T14:21:37.699Z,1.20
2022-09-20T14:24:31.829Z,3.53
2022-09-20T14:27:15.763Z,1.70
2022-09-20T14:29:46.212Z,1.27
2022-09-20T14:32:18.966Z,1.50
2022-09-20T14:34:51.728Z,1.20
2022-09-20T14:37:29.814Z,1.00
2022-09-20T14:39:59.764Z,1.13
2022-09-20T14:42:41.250Z,1.20
2022-09-20T14:45:35.562Z,1.10
2022-09-20T14:48:10.456Z,1.50
2022-09-20T14:53:10.817Z,1.65
2022-09-20T14:55:41.584Z,1.00
2022-09-20T15:06:12.481Z,2.92
2022-09-20T15:08:45.466Z,1.77
2022-09-20T15:11:15.743Z,2.00
2022-09-20T15:13:42.764Z,1.60
2022-09-20T15:16:14.992Z,1.70
2022-09-20T15:18:43.722Z,1.98
2022-09-20T15:21:11.415Z,1.30
2022-09-20T15:23:39.276Z,1.48
2022-09-20T15:26:07.729Z,2.10
2022-09-20T15:28:34.887Z,2.08
2022-09-20T15:31:01.999Z,1.73
2022-09-20T15:33:32.017Z,1.50
2022-09-20T15:36:00.837Z,1.50
2022-09-20T15:38:28.198Z,1.27
2022-09-20T15:40:55.158Z,1.23
2022-09-20T15:43:26.663Z,1.17
2022-09-20T15:48:30.741Z,1.00
2022-09-20T15:51:11.250Z,1.10
2022-09-20T15:53:44.672Z,0.77
2022-09-20T15:56:22.795Z,1.35
2022-09-20T15:58:58.978Z,1.40
2022-09-20T16:01:32.916Z,1.27
2022-09-20T16:04:00.335Z,0.90
2022-09-20T16:06:27.159Z,1.02
2022-09-20T16:08:53.925Z,1.08
2022-09-20T16:11:22.820Z,1.40
2022-09-20T16:13:54.730Z,1.38
2022-09-20T16:16:22.083Z,1.83
2022-09-20T16:19:07.635Z,1.67
2022-09-20T16:21:35.039Z,1.27
2022-09-20T16:24:02.413Z,1.20
2022-09-20T16:26:31.222Z,0.90
